Time;durP1;ratioP1;P1;durP2;ratioP2;P2;SDS_P1;SDS_P2;PMS_P1;PMS_P2;Temp;Humidity;BMP_temperature;BMP_pressure;BME280_temperature;BME280_humidity;BME280_pressure;Samples;Min_cycle;Max_cycle;Signal;HPM_P1;HPM_P2
2023/05/09 00:00:46;;;;;;;23.00;19.53;;;19.20;95.70;;;;;;5056086;28;20452;-54
2023/05/09 00:03:13;;;;;;;22.17;19.80;;;19.10;95.80;;;;;;5056005;28;20441;-54
2023/05/09 00:05:40;;;;;;;24.90;19.57;;;19.10;95.90;;;;;;5055921;28;20493;-55
2023/05/09 00:08:07;;;;;;;22.63;19.90;;;19.00;96.10;;;;;;5055948;28;20965;-55
2023/05/09 00:10:33;;;;;;;22.70;19.97;;;19.00;96.40;;;;;;5056068;28;20449;-56
2023/05/09 00:13:01;;;;;;;26.50;21.20;;;19.00;96.60;;;;;;5057090;28;20961;-55
2023/05/09 00:15:29;;;;;;;24.93;21.13;;;19.00;96.80;;;;;;5057541;28;20465;-54
2023/05/09 00:17:55;;;;;;;26.93;22.03;;;19.00;96.90;;;;;;5056263;28;20504;-54
2023/05/09 00:20:22;;;;;;;29.17;23.40;;;18.90;96.90;;;;;;5056342;28;20482;-55
2023/05/09 00:22:49;;;;;;;29.63;24.27;;;18.90;97.00;;;;;;5056103;28;20445;-55
2023/05/09 00:25:16;;;;;;;31.83;22.87;;;18.90;97.10;;;;;;5055679;28;20523;-55
2023/05/09 00:27:43;;;;;;;25.47;22.73;;;18.90;97.10;;;;;;5055769;28;20455;-55
2023/05/09 00:30:11;;;;;;;28.63;22.50;;;18.90;97.20;;;;;;5054842;28;20437;-55
2023/05/09 00:32:40;;;;;;;36.40;24.50;;;18.90;97.30;;;;;;5055414;28;20523;-55
2023/05/09 00:35:08;;;;;;;33.07;25.03;;;18.80;97.50;;;;;;5055488;28;20477;-54
2023/05/09 00:37:35;;;;;;;34.00;24.93;;;18.70;97.70;;;;;;5055436;28;20503;-54
2023/05/09 00:40:03;;;;;;;31.87;24.00;;;18.70;97.90;;;;;;5055109;28;21003;-54
2023/05/09 00:42:30;;;;;;;33.00;25.57;;;18.70;98.00;;;;;;5055382;28;20452;-54
2023/05/09 00:44:56;;;;;;;32.13;25.17;;;18.70;98.00;;;;;;5055326;28;20527;-54
2023/05/09 00:47:25;;;;;;;29.43;23.40;;;18.80;98.10;;;;;;5055089;28;20943;-54
2023/05/09 00:49:51;;;;;;;33.50;24.90;;;18.70;98.10;;;;;;5055242;28;20445;-54
2023/05/09 00:52:22;;;;;;;31.40;23.20;;;18.60;98.20;;;;;;5055214;28;20450;-54
2023/05/09 00:54:48;;;;;;;35.27;23.40;;;18.60;98.40;;;;;;5055102;28;20557;-55
2023/05/09 00:57:16;;;;;;;29.37;22.67;;;18.70;98.70;;;;;;5054805;28;20967;-55
2023/05/09 00:59:42;;;;;;;31.43;24.90;;;18.70;98.60;;;;;;5054612;28;21002;-55
2023/05/09 01:02:09;;;;;;;30.23;24.80;;;18.80;98.60;;;;;;5055085;28;20450;-55
2023/05/09 01:04:38;;;;;;;29.27;23.90;;;18.80;98.40;;;;;;5054544;28;20975;-56
2023/05/09 01:07:10;;;;;;;32.83;24.90;;;18.80;98.20;;;;;;5054917;28;20445;-55
2023/05/09 01:09:46;;;;;;;31.63;26.20;;;18.80;98.20;;;;;;5054597;28;20461;-55
2023/05/09 01:12:21;;;;;;;32.60;25.57;;;18.70;98.30;;;;;;5054763;28;20436;-55
2023/05/09 01:14:54;;;;;;;33.33;26.57;;;18.60;98.60;;;;;;5054727;28;20461;-55
2023/05/09 01:17:31;;;;;;;32.80;26.13;;;18.60;98.80;;;;;;5054395;28;20803;-55
2023/05/09 01:20:10;;;;;;;30.70;24.50;;;18.60;98.90;;;;;;5054397;28;20469;-55
2023/05/09 01:22:39;;;;;;;33.77;25.50;;;18.60;99.00;;;;;;5054650;28;20425;-55
2023/05/09 01:25:40;;;;;;;32.10;25.00;;;18.60;98.90;;;;;;5054278;28;20473;-55
2023/05/09 01:28:26;;;;;;;33.30;25.07;;;18.60;98.80;;;;;;5054427;28;20507;-55
2023/05/09 01:30:56;;;;;;;31.03;24.67;;;18.60;98.80;;;;;;5054501;28;20476;-55
2023/05/09 01:33:26;;;;;;;32.30;24.73;;;18.60;99.10;;;;;;5054049;28;20967;-55
2023/05/09 01:36:00;;;;;;;28.37;22.40;;;18.50;98.70;;;;;;5054304;28;20863;-55
2023/05/09 01:38:30;;;;;;;32.63;24.40;;;18.60;98.80;;;;;;5054259;28;20513;-55
2023/05/09 01:40:58;;;;;;;28.70;22.83;;;18.60;98.90;;;;;;5054356;28;20492;-55
2023/05/09 01:43:28;;;;;;;29.60;24.23;;;18.60;98.80;;;;;;5054059;28;20449;-55
2023/05/09 01:45:58;;;;;;;29.67;22.83;;;18.60;98.70;;;;;;5054082;28;20481;-55
2023/05/09 01:48:26;;;;;;;27.30;23.50;;;18.60;98.60;;;;;;5053782;28;20958;-55
2023/05/09 01:50:54;;;;;;;26.97;22.90;;;18.60;98.60;;;;;;5053985;28;20449;-55
2023/05/09 01:53:24;;;;;;;27.03;22.57;;;18.60;98.50;;;;;;5054024;28;20461;-55
2023/05/09 01:55:51;;;;;;;26.53;23.07;;;18.60;98.30;;;;;;5053859;28;20461;-55
2023/05/09 01:58:20;;;;;;;31.20;23.10;;;18.60;98.20;;;;;;5053910;28;20453;-55
2023/05/09 02:00:48;;;;;;;25.33;22.30;;;18.60;98.10;;;;;;5053811;28;20485;-55
2023/05/09 02:03:16;;;;;;;29.33;23.17;;;18.60;98.00;;;;;;5053795;28;20523;-55
2023/05/09 02:05:44;;;;;;;28.67;22.10;;;18.60;98.10;;;;;;5053386;28;20982;-55
2023/05/09 02:08:13;;;;;;;27.07;24.17;;;18.70;98.00;;;;;;5053609;28;20457;-55
2023/05/09 02:10:41;;;;;;;26.67;21.77;;;18.60;98.00;;;;;;5053745;28;20453;-55
2023/05/09 02:13:08;;;;;;;29.60;21.30;;;18.60;97.90;;;;;;5053691;28;20441;-55
2023/05/09 02:15:35;;;;;;;25.67;21.37;;;18.70;97.90;;;;;;5053649;28;20477;-55
2023/05/09 02:18:01;;;;;;;25.50;22.33;;;18.70;97.90;;;;;;5053553;28;20514;-55
2023/05/09 02:20:29;;;;;;;24.83;21.87;;;18.70;97.80;;;;;;5053472;28;20489;-55
2023/05/09 02:22:56;;;;;;;24.70;21.07;;;18.80;97.70;;;;;;5053519;28;20454;-54
2023/05/09 02:25:23;;;;;;;24.80;21.37;;;18.80;97.60;;;;;;5053478;28;20851;-56
2023/05/09 02:27:51;;;;;;;25.00;21.50;;;18.80;97.40;;;;;;5053477;28;20445;-55
2023/05/09 02:30:23;;;;;;;23.97;20.10;;;18.90;97.30;;;;;;5053129;28;20936;-55
2023/05/09 02:32:53;;;;;;;25.93;21.53;;;18.90;97.30;;;;;;5053515;28;20774;-56
2023/05/09 02:35:21;;;;;;;24.90;21.67;;;18.90;97.30;;;;;;5053023;28;20518;-55
2023/05/09 02:37:49;;;;;;;22.20;20.00;;;19.00;97.10;;;;;;5053357;28;20450;-55
2023/05/09 02:40:17;;;;;;;21.93;18.73;;;19.00;97.10;;;;;;5053312;28;20489;-55
2023/05/09 02:42:44;;;;;;;23.17;18.10;;;19.00;97.00;;;;;;5053318;28;20476;-54
2023/05/09 02:45:11;;;;;;;26.10;20.77;;;19.00;96.80;;;;;;5052917;28;20875;-55
2023/05/09 02:47:38;;;;;;;24.70;21.53;;;19.00;96.80;;;;;;5053352;28;20441;-55
2023/05/09 02:50:05;;;;;;;26.00;20.73;;;19.00;96.80;;;;;;5052996;28;20943;-56
2023/05/09 02:52:32;;;;;;;26.13;21.90;;;19.10;96.80;;;;;;5053075;28;20943;-55
2023/05/09 02:55:00;;;;;;;28.17;23.13;;;19.10;96.80;;;;;;5055710;28;20983;-55
2023/05/09 02:57:27;;;;;;;26.03;20.70;;;19.00;96.60;;;;;;5057366;28;20445;-55
2023/05/09 02:59:54;;;;;;;25.90;19.93;;;18.90;96.60;;;;;;5057202;28;20480;-56
2023/05/09 03:02:22;;;;;;;30.40;23.20;;;18.90;96.60;;;;;;5057354;28;20445;-56
2023/05/09 03:04:48;;;;;;;26.63;21.60;;;18.90;96.60;;;;;;5056902;28;20982;-55
2023/05/09 03:07:15;;;;;;;30.73;21.70;;;19.00;96.80;;;;;;5057218;28;20460;-56
2023/05/09 03:09:42;;;;;;;25.90;20.93;;;18.90;96.70;;;;;;5056711;28;20460;-56
2023/05/09 03:12:10;;;;;;;28.27;21.67;;;18.90;96.80;;;;;;5057300;28;20450;-56
2023/05/09 03:14:36;;;;;;;22.73;19.90;;;18.90;96.90;;;;;;5057311;28;20465;-56
2023/05/09 03:17:03;;;;;;;28.90;22.50;;;18.90;97.00;;;;;;5057277;28;20456;-56
2023/05/09 03:19:30;;;;;;;27.93;22.10;;;18.90;97.10;;;;;;5057893;28;20477;-56
2023/05/09 03:21:57;;;;;;;27.67;22.10;;;18.90;97.10;;;;;;5058767;28;20446;-56
2023/05/09 03:24:27;;;;;;;24.53;21.43;;;18.90;97.00;;;;;;5057969;28;20476;-56
2023/05/09 03:26:53;;;;;;;30.13;22.00;;;18.90;97.00;;;;;;5058602;28;20478;-56
2023/05/09 03:29:21;;;;;;;26.13;22.90;;;18.90;97.10;;;;;;5057376;28;20495;-56
2023/05/09 03:31:48;;;;;;;32.07;22.00;;;18.80;97.20;;;;;;5057434;28;20450;-56
2023/05/09 03:34:15;;;;;;;24.70;19.87;;;18.80;97.20;;;;;;5057006;28;20472;-56
2023/05/09 03:36:42;;;;;;;27.77;22.63;;;18.80;97.20;;;;;;5056940;28;20445;-56
2023/05/09 03:39:09;;;;;;;29.90;23.13;;;18.80;97.30;;;;;;5056781;28;20635;-56
2023/05/09 03:41:36;;;;;;;25.30;20.30;;;18.80;97.40;;;;;;5056707;28;20438;-56
2023/05/09 03:44:03;;;;;;;28.57;22.63;;;18.80;97.40;;;;;;5056837;28;20476;-56
2023/05/09 03:46:31;;;;;;;27.00;20.00;;;18.80;97.60;;;;;;5056646;28;20445;-56
2023/05/09 03:48:58;;;;;;;28.47;22.47;;;18.80;97.50;;;;;;5056617;28;20464;-56
2023/05/09 03:51:25;;;;;;;24.17;19.73;;;18.90;97.60;;;;;;5057284;28;20778;-56
2023/05/09 03:53:52;;;;;;;26.50;20.27;;;18.90;97.60;;;;;;5056325;28;20456;-56
2023/05/09 03:56:19;;;;;;;27.93;21.87;;;18.80;97.50;;;;;;5056341;28;20441;-56
2023/05/09 03:58:46;;;;;;;26.00;22.13;;;18.90;97.70;;;;;;5056421;28;20537;-56
2023/05/09 04:01:13;;;;;;;27.90;21.17;;;18.90;97.70;;;;;;5056315;28;20477;-56
2023/05/09 04:03:41;;;;;;;22.07;17.60;;;18.90;97.80;;;;;;5056216;28;20454;-56
2023/05/09 04:06:08;;;;;;;24.83;20.70;;;18.90;97.70;;;;;;5055751;28;21009;-55
2023/05/09 04:08:35;;;;;;;22.97;20.40;;;18.90;97.80;;;;;;5055801;28;20943;-56
2023/05/09 04:11:01;;;;;;;25.50;21.00;;;18.90;97.90;;;;;;5056119;28;20447;-56
2023/05/09 04:13:28;;;;;;;29.53;21.77;;;18.90;97.90;;;;;;5055722;28;20457;-56
2023/05/09 04:15:56;;;;;;;23.33;20.57;;;18.90;98.00;;;;;;5055615;28;20941;-56
2023/05/09 04:18:23;;;;;;;27.43;22.00;;;18.90;98.10;;;;;;5055852;28;20508;-56
2023/05/09 04:20:51;;;;;;;31.83;22.93;;;18.90;98.10;;;;;;5055910;28;20503;-56
2023/05/09 04:23:17;;;;;;;27.33;22.00;;;18.90;98.20;;;;;;5056054;28;20441;-56
2023/05/09 04:25:44;;;;;;;23.43;19.00;;;18.90;98.20;;;;;;5055550;28;20899;-56
2023/05/09 04:28:11;;;;;;;21.63;19.33;;;18.90;98.10;;;;;;5055914;28;20466;-56
2023/05/09 04:30:38;;;;;;;27.43;23.27;;;18.90;98.00;;;;;;5055322;28;20491;-56
2023/05/09 04:33:05;;;;;;;25.13;22.00;;;18.90;98.10;;;;;;5055672;28;20468;-56
2023/05/09 04:35:31;;;;;;;30.37;22.83;;;18.90;98.00;;;;;;5055555;28;20556;-56
2023/05/09 04:37:59;;;;;;;27.30;22.03;;;18.90;98.00;;;;;;5055464;28;20456;-56
2023/05/09 04:40:26;;;;;;;26.23;21.23;;;19.00;97.90;;;;;;5055327;28;20481;-56
2023/05/09 04:42:53;;;;;;;22.37;19.50;;;19.00;97.90;;;;;;5056132;28;20519;-56
2023/05/09 04:45:20;;;;;;;22.37;20.00;;;19.00;97.90;;;;;;5055252;28;20477;-56
2023/05/09 04:47:47;;;;;;;24.00;18.50;;;19.00;97.90;;;;;;5055186;28;20460;-56
2023/05/09 04:50:14;;;;;;;28.20;23.20;;;19.00;97.80;;;;;;5055054;28;20450;-56
2023/05/09 04:52:40;;;;;;;28.27;23.10;;;19.00;97.80;;;;;;5054952;28;20449;-56
2023/05/09 04:55:09;;;;;;;21.93;19.73;;;19.00;97.80;;;;;;5054795;28;20979;-56
2023/05/09 04:57:36;;;;;;;22.80;19.07;;;19.00;97.90;;;;;;5054761;28;21071;-56
2023/05/09 05:00:05;;;;;;;25.90;18.13;;;19.00;97.80;;;;;;5054905;28;20478;-56
2023/05/09 05:02:32;;;;;;;24.73;20.40;;;19.10;97.80;;;;;;5055452;28;20450;-56
2023/05/09 05:04:59;;;;;;;22.90;20.50;;;19.10;97.70;;;;;;5054994;28;20481;-56
2023/05/09 05:07:25;;;;;;;28.03;22.33;;;19.10;97.60;;;;;;5054946;28;20808;-56
2023/05/09 05:09:52;;;;;;;26.97;22.90;;;19.20;97.80;;;;;;5054497;28;20865;-56
2023/05/09 05:12:20;;;;;;;27.67;22.73;;;19.20;97.70;;;;;;5054482;28;20849;-56
2023/05/09 05:14:47;;;;;;;31.90;24.30;;;19.30;97.70;;;;;;5054807;28;20501;-56
2023/05/09 05:17:15;;;;;;;27.50;24.33;;;19.30;97.60;;;;;;5054184;28;20472;-56
2023/05/09 05:19:42;;;;;;;29.90;24.63;;;19.40;97.30;;;;;;5054531;28;20450;-56
2023/05/09 05:22:09;;;;;;;30.50;24.10;;;19.40;97.20;;;;;;5054567;28;20449;-56
2023/05/09 05:24:35;;;;;;;27.30;20.93;;;19.50;97.10;;;;;;5054434;28;20465;-56
2023/05/09 05:27:02;;;;;;;23.07;19.37;;;19.50;96.90;;;;;;5054639;28;20449;-56
2023/05/09 05:29:30;;;;;;;33.70;25.50;;;19.60;96.70;;;;;;5054457;28;20489;-56
2023/05/09 05:31:57;;;;;;;23.57;20.90;;;19.70;96.60;;;;;;5054174;28;20812;-56
2023/05/09 05:34:24;;;;;;;23.43;19.87;;;19.80;96.30;;;;;;5053960;28;21085;-56
2023/05/09 05:36:50;;;;;;;20.70;18.10;;;19.90;96.10;;;;;;5054330;28;20453;-56
2023/05/09 05:39:17;;;;;;;28.77;22.30;;;20.00;96.10;;;;;;5054213;28;20449;-56
2023/05/09 05:41:44;;;;;;;21.43;17.20;;;20.10;95.60;;;;;;5054149;28;20673;-57
2023/05/09 05:44:10;;;;;;;25.00;19.07;;;20.20;95.10;;;;;;5053729;28;20469;-56
2023/05/09 05:46:38;;;;;;;26.73;23.33;;;20.30;95.00;;;;;;5054143;28;20532;-56
2023/05/09 05:49:05;;;;;;;30.20;25.33;;;20.30;94.60;;;;;;5053612;28;20453;-56
2023/05/09 05:51:32;;;;;;;25.87;21.27;;;20.40;94.50;;;;;;5054522;28;20934;-56
2023/05/09 05:53:59;;;;;;;29.33;23.47;;;20.40;94.30;;;;;;5053949;28;20474;-56
2023/05/09 05:56:26;;;;;;;25.80;21.00;;;20.50;94.10;;;;;;5053939;28;20458;-56
2023/05/09 05:58:52;;;;;;;28.87;24.27;;;20.50;94.00;;;;;;5053923;28;20454;-56
2023/05/09 06:01:19;;;;;;;24.43;21.83;;;20.50;93.90;;;;;;5054325;28;20535;-56
2023/05/09 06:03:53;;;;;;;29.80;24.27;;;20.50;93.70;;;;;;5053796;28;20453;-56
2023/05/09 06:06:20;;;;;;;26.50;23.70;;;20.60;93.80;;;;;;5053672;28;20434;-58
2023/05/09 06:08:48;;;;;;;26.70;22.00;;;20.60;93.70;;;;;;5053392;28;20499;-56
2023/05/09 06:11:15;;;;;;;26.57;23.67;;;20.60;93.60;;;;;;5053594;28;20438;-56
2023/05/09 06:13:42;;;;;;;29.43;23.07;;;20.60;93.50;;;;;;5053614;28;20453;-56
2023/05/09 06:16:09;;;;;;;27.57;24.47;;;20.60;93.50;;;;;;5053545;28;20441;-56
2023/05/09 06:18:36;;;;;;;26.17;23.40;;;20.60;93.40;;;;;;5053603;28;20453;-56
2023/05/09 06:21:04;;;;;;;26.50;22.37;;;20.60;93.40;;;;;;5053485;28;20603;-56
2023/05/09 06:23:31;;;;;;;30.67;22.90;;;20.50;93.50;;;;;;5053485;28;20453;-56
2023/05/09 06:25:58;;;;;;;31.33;24.67;;;20.40;93.50;;;;;;5053389;28;20480;-57
2023/05/09 06:28:25;;;;;;;25.90;22.27;;;20.40;93.80;;;;;;5052652;28;20462;-57
2023/05/09 06:30:52;;;;;;;30.53;24.70;;;20.30;93.90;;;;;;5054784;28;20446;-56
2023/05/09 06:33:19;;;;;;;28.67;23.30;;;20.30;94.10;;;;;;5054321;28;20449;-56
2023/05/09 06:35:45;;;;;;;33.80;23.57;;;20.30;94.30;;;;;;5054426;28;20564;-56
2023/05/09 06:38:13;;;;;;;27.90;22.10;;;20.30;94.40;;;;;;5053417;28;20936;-56
2023/05/09 06:40:40;;;;;;;26.43;22.77;;;20.40;94.60;;;;;;5052979;28;20495;-56
2023/05/09 06:43:07;;;;;;;26.47;21.10;;;20.50;94.60;;;;;;5053084;28;20457;-56
2023/05/09 06:45:34;;;;;;;30.20;23.93;;;20.50;94.40;;;;;;5053058;28;20553;-56
2023/05/09 06:48:00;;;;;;;26.53;21.73;;;20.60;94.50;;;;;;5053194;28;20500;-56
2023/05/09 06:50:27;;;;;;;32.60;23.50;;;20.60;94.30;;;;;;5053260;28;20449;-56
2023/05/09 06:52:54;;;;;;;29.53;23.40;;;20.60;94.20;;;;;;5053226;28;20442;-56
2023/05/09 06:55:22;;;;;;;28.33;23.27;;;20.70;94.00;;;;;;5053116;28;20477;-56
2023/05/09 06:57:48;;;;;;;29.43;23.83;;;20.70;93.70;;;;;;5052873;28;20449;-56
2023/05/09 07:00:16;;;;;;;31.13;24.50;;;20.70;93.80;;;;;;5053117;28;20825;-56
2023/05/09 07:02:43;;;;;;;27.83;20.70;;;20.70;93.60;;;;;;5053263;28;20457;-58
2023/05/09 07:05:10;;;;;;;27.60;21.17;;;20.60;93.50;;;;;;5053026;28;20472;-56
2023/05/09 07:07:37;;;;;;;28.77;23.33;;;20.70;93.60;;;;;;5052874;28;20477;-57
2023/05/09 07:10:05;;;;;;;32.97;23.57;;;20.70;93.40;;;;;;5053050;28;20434;-56
2023/05/09 07:12:33;;;;;;;36.90;23.90;;;20.80;93.50;;;;;;5053019;28;20500;-56
2023/05/09 07:15:00;;;;;;;27.87;23.90;;;20.70;93.40;;;;;;5052971;28;20469;-56
2023/05/09 07:17:28;;;;;;;29.07;23.87;;;20.80;93.40;;;;;;5052999;28;20458;-56
2023/05/09 07:19:55;;;;;;;28.77;22.60;;;20.80;93.30;;;;;;5052902;28;20453;-56
2023/05/09 07:22:22;;;;;;;27.73;21.63;;;20.90;93.20;;;;;;5052810;28;20481;-57
2023/05/09 07:24:49;;;;;;;25.33;19.93;;;20.90;93.00;;;;;;5052812;28;20493;-56
2023/05/09 07:27:16;;;;;;;21.70;19.13;;;20.90;92.70;;;;;;5052849;28;20544;-56
2023/05/09 07:29:44;;;;;;;22.77;20.00;;;21.00;92.70;;;;;;5053456;28;20456;-56
2023/05/09 07:32:10;;;;;;;26.37;20.97;;;21.00;92.40;;;;;;5052630;28;20472;-56
2023/05/09 07:34:37;;;;;;;19.83;17.77;;;21.00;92.10;;;;;;5052672;28;20478;-57
2023/05/09 07:37:04;;;;;;;24.17;20.23;;;21.00;92.10;;;;;;5052836;28;20483;-56
2023/05/09 07:39:30;;;;;;;19.03;16.80;;;21.10;92.10;;;;;;5053008;28;20460;-56
2023/05/09 07:41:57;;;;;;;21.20;17.00;;;21.20;91.60;;;;;;5056150;28;20827;-56
2023/05/09 07:44:24;;;;;;;18.67;15.97;;;21.20;91.60;;;;;;5056397;28;20465;-56
2023/05/09 07:46:54;;;;;;;18.13;16.20;;;21.40;91.80;;;;;;5056437;28;20457;-56
2023/05/09 07:49:20;;;;;;;14.87;13.47;;;21.50;90.90;;;;;;5056570;28;20456;-56
2023/05/09 07:51:47;;;;;;;17.03;15.40;;;21.70;90.60;;;;;;5055998;28;20923;-56
2023/05/09 07:54:14;;;;;;;15.20;13.10;;;21.90;89.90;;;;;;5056222;28;20469;-56
2023/05/09 07:56:40;;;;;;;14.33;12.90;;;22.10;89.10;;;;;;5056324;28;20507;-56
2023/05/09 07:59:07;;;;;;;14.57;12.20;;;22.30;88.20;;;;;;5056222;28;20468;-56
2023/05/09 08:01:34;;;;;;;13.30;11.93;;;22.40;87.50;;;;;;5055765;28;20535;-56
2023/05/09 08:04:04;;;;;;;11.33;10.03;;;22.50;84.40;;;;;;5056473;28;20503;-56
2023/05/09 08:06:31;;;;;;;13.83;9.63;;;22.60;83.30;;;;;;5055987;28;20821;-56
2023/05/09 08:08:57;;;;;;;11.10;8.80;;;22.70;82.10;;;;;;5055648;28;20469;-56
2023/05/09 08:11:24;;;;;;;9.77;8.77;;;22.80;81.00;;;;;;5055944;28;20445;-56
2023/05/09 08:13:51;;;;;;;8.83;7.93;;;23.00;79.60;;;;;;5055816;28;20801;-56
2023/05/09 08:16:17;;;;;;;9.20;8.13;;;23.00;79.10;;;;;;5055900;28;20457;-56
2023/05/09 08:18:44;;;;;;;10.67;8.27;;;23.20;79.10;;;;;;5055894;28;20446;-56
2023/05/09 08:21:13;;;;;;;7.10;6.40;;;23.40;77.50;;;;;;5055388;28;20489;-57
2023/05/09 08:23:40;;;;;;;8.80;7.93;;;23.60;77.60;;;;;;5055624;28;20504;-57
2023/05/09 08:26:07;;;;;;;8.70;7.70;;;23.80;74.70;;;;;;5056313;28;20529;-54
2023/05/09 08:28:33;;;;;;;8.10;7.30;;;24.00;73.80;;;;;;5055584;28;20456;-56
2023/05/09 08:31:00;;;;;;;10.47;9.13;;;24.20;73.00;;;;;;5055593;28;20448;-55
2023/05/09 08:33:27;;;;;;;10.40;8.83;;;24.40;72.60;;;;;;5055227;28;20446;-55
2023/05/09 08:35:55;;;;;;;9.40;8.43;;;24.60;71.30;;;;;;5055093;28;20991;-57
2023/05/09 08:38:24;;;;;;;8.43;7.53;;;24.80;69.60;;;;;;5055472;28;20454;-54
2023/05/09 08:40:50;;;;;;;10.77;6.97;;;24.90;68.40;;;;;;5055251;28;20537;-55
2023/05/09 08:43:18;;;;;;;13.93;6.00;;;25.00;66.50;;;;;;5055413;28;20579;-55
2023/05/09 08:45:47;;;;;;;9.90;6.13;;;25.10;65.60;;;;;;5054888;28;21041;-55
2023/05/09 08:48:15;;;;;;;5.47;4.73;;;25.30;64.90;;;;;;5055226;28;20445;-55
2023/05/09 08:50:43;;;;;;;4.37;3.97;;;25.50;63.10;;;;;;5054636;28;20998;-55
2023/05/09 08:53:10;;;;;;;7.30;6.60;;;25.60;63.00;;;;;;5054403;28;20441;-55
2023/05/09 08:55:38;;;;;;;8.50;5.67;;;25.90;60.30;;;;;;5055051;28;20478;-55
2023/05/09 08:58:06;;;;;;;5.80;5.13;;;26.00;59.80;;;;;;5055047;28;20450;-56
2023/05/09 09:00:33;;;;;;;5.93;4.73;;;26.10;59.60;;;;;;5054742;28;20449;-55
2023/05/09 09:03:02;;;;;;;5.90;4.13;;;26.20;58.10;;;;;;5054918;28;20485;-55
2023/05/09 09:05:31;;;;;;;4.10;3.77;;;26.20;56.30;;;;;;5054814;28;20469;-55
2023/05/09 09:07:58;;;;;;;4.73;3.50;;;26.30;57.10;;;;;;5054362;28;20885;-56
2023/05/09 09:10:26;;;;;;;8.37;4.40;;;26.50;56.50;;;;;;5054506;28;20453;-55
2023/05/09 09:12:56;;;;;;;6.27;3.87;;;26.50;55.90;;;;;;5054776;28;20454;-54
2023/05/09 09:15:25;;;;;;;5.57;4.27;;;26.60;56.10;;;;;;5054513;28;20492;-55
2023/05/09 09:17:56;;;;;;;5.20;4.70;;;26.80;56.40;;;;;;5054573;28;20464;-56
2023/05/09 09:20:25;;;;;;;4.97;3.50;;;26.90;55.10;;;;;;5054336;28;20430;-55
2023/05/09 09:22:55;;;;;;;5.33;4.77;;;27.00;54.60;;;;;;5054543;28;20488;-56
2023/05/09 09:25:22;;;;;;;5.10;3.33;;;27.10;53.90;;;;;;5054788;28;20468;-56
2023/05/09 09:27:48;;;;;;;11.30;3.80;;;27.20;53.60;;;;;;5054496;28;20452;-56
2023/05/09 09:30:18;;;;;;;3.33;2.90;;;27.30;53.50;;;;;;5054459;28;20452;-56
2023/05/09 09:32:44;;;;;;;5.20;3.57;;;27.40;52.40;;;;;;5054152;28;20441;-57
2023/05/09 09:35:11;;;;;;;5.50;3.63;;;27.50;52.80;;;;;;5055352;28;20466;-56
2023/05/09 09:37:42;;;;;;;3.63;2.83;;;27.60;51.70;;;;;;5055512;28;20454;-57
2023/05/09 09:40:10;;;;;;;4.63;3.20;;;27.60;51.60;;;;;;5055114;28;20452;-56
2023/05/09 09:42:42;;;;;;;5.10;3.43;;;27.40;51.30;;;;;;5054486;28;20485;-56
2023/05/09 09:45:10;;;;;;;4.93;2.50;;;27.30;51.50;;;;;;5054312;28;20512;-56
2023/05/09 09:47:39;;;;;;;4.57;3.07;;;27.40;51.90;;;;;;5054184;28;20449;-56
2023/05/09 09:50:11;;;;;;;7.13;3.00;;;27.40;51.00;;;;;;5054159;28;20544;-56
2023/05/09 09:52:42;;;;;;;8.20;3.00;;;27.60;51.30;;;;;;5054194;28;20426;-56
2023/05/09 09:55:09;;;;;;;3.27;2.30;;;27.80;50.70;;;;;;5054124;28;20477;-56
2023/05/09 09:57:37;;;;;;;3.13;2.30;;;27.90;50.40;;;;;;5054079;28;20485;-55
2023/05/09 10:00:04;;;;;;;4.33;2.70;;;28.20;49.50;;;;;;5054007;28;20533;-55
2023/05/09 10:02:31;;;;;;;2.80;2.60;;;28.30;49.20;;;;;;5053664;28;20489;-57
2023/05/09 10:05:06;;;;;;;2.30;2.10;;;28.50;48.60;;;;;;5053887;28;20469;-56
2023/05/09 10:07:34;;;;;;;3.70;3.00;;;28.60;47.60;;;;;;5053803;28;20426;-56
2023/05/09 10:10:04;;;;;;;6.43;2.13;;;28.70;48.10;;;;;;5053844;28;20445;-56
2023/05/09 10:12:34;;;;;;;4.03;2.40;;;28.90;47.30;;;;;;5053883;28;20483;-55
2023/05/09 10:15:03;;;;;;;3.27;2.60;;;29.00;46.60;;;;;;5053660;28;20465;-56
2023/05/09 10:17:31;;;;;;;3.13;2.80;;;29.10;46.30;;;;;;5053941;28;20449;-55
2023/05/09 10:20:04;;;;;;;3.50;2.83;;;29.40;46.10;;;;;;5053877;28;20440;-56
2023/05/09 10:22:34;;;;;;;2.97;2.60;;;29.50;45.00;;;;;;5053646;28;20465;-56
2023/05/09 10:25:03;;;;;;;4.80;2.50;;;29.50;44.90;;;;;;5053434;28;20468;-56
2023/05/09 10:27:34;;;;;;;2.80;2.60;;;29.50;44.60;;;;;;5053397;28;20475;-55
2023/05/09 10:30:09;;;;;;;3.10;2.40;;;29.80;44.90;;;;;;5053521;28;20448;-55
2023/05/09 10:32:43;;;;;;;3.63;2.40;;;30.10;44.60;;;;;;5053263;28;20428;-55
2023/05/09 10:35:12;;;;;;;3.20;2.80;;;30.60;43.70;;;;;;5053375;28;20471;-55
2023/05/09 10:37:39;;;;;;;2.40;2.20;;;31.00;42.10;;;;;;5053311;28;20487;-55
2023/05/09 10:40:08;;;;;;;4.83;2.60;;;31.00;41.40;;;;;;5053133;28;20890;-55
2023/05/09 10:42:35;;;;;;;4.80;2.70;;;30.80;42.10;;;;;;5053156;28;20488;-55
2023/05/09 10:45:02;;;;;;;3.30;3.00;;;30.60;42.40;;;;;;5053182;28;20479;-55
2023/05/09 10:47:30;;;;;;;4.73;2.67;;;30.30;42.80;;;;;;5053297;28;20895;-55
2023/05/09 10:49:57;;;;;;;3.17;2.87;;;29.80;43.50;;;;;;5053059;28;20503;-55
2023/05/09 10:52:31;;;;;;;3.80;3.27;;;29.40;43.90;;;;;;5053200;28;20447;-55
2023/05/09 10:55:02;;;;;;;3.80;2.60;;;29.00;45.20;;;;;;5053179;28;20476;-55
2023/05/09 10:57:30;;;;;;;3.63;2.50;;;28.80;46.70;;;;;;5053604;28;20503;-56
2023/05/09 10:59:59;;;;;;;2.97;2.60;;;28.60;47.50;;;;;;5053133;28;20456;-55
2023/05/09 11:02:29;;;;;;;2.93;2.73;;;28.50;48.40;;;;;;5053012;28;20481;-55
2023/05/09 11:05:16;;;;;;;3.60;2.70;;;28.30;48.50;;;;;;5052749;28;20995;-56
2023/05/09 11:07:44;;;;;;;3.10;2.60;;;28.10;48.70;;;;;;5052814;28;20451;-56
2023/05/09 11:10:15;;;;;;;4.80;2.33;;;27.90;49.60;;;;;;5053137;28;20434;-55
2023/05/09 11:12:55;;;;;;;6.40;2.50;;;27.80;50.40;;;;;;5052961;28;20430;-56
2023/05/09 11:15:22;;;;;;;3.53;3.23;;;27.60;50.20;;;;;;5054526;28;20491;-55
2023/05/09 11:18:04;;;;;;;6.00;2.93;;;27.40;50.30;;;;;;5056589;28;20839;-55
2023/05/09 11:20:33;;;;;;;5.30;2.80;;;27.20;52.00;;;;;;5057029;28;20434;-55
2023/05/09 11:23:04;;;;;;;4.23;3.63;;;27.00;51.30;;;;;;5056847;28;20484;-55
2023/05/09 11:25:31;;;;;;;3.37;2.80;;;26.90;52.50;;;;;;5056524;28;20531;-55
2023/05/09 11:28:00;;;;;;;3.33;3.00;;;26.80;53.80;;;;;;5056640;28;20457;-55
2023/05/09 11:30:38;;;;;;;4.63;2.90;;;26.70;53.40;;;;;;5056799;28;20452;-55
2023/05/09 11:33:05;;;;;;;6.20;3.30;;;26.70;52.90;;;;;;5056722;28;20426;-56
2023/05/09 11:35:33;;;;;;;4.50;2.80;;;26.60;53.10;;;;;;5056655;28;20505;-55
2023/05/09 11:38:03;;;;;;;3.20;2.73;;;26.50;53.00;;;;;;5056556;28;20449;-55
2023/05/09 11:40:30;;;;;;;4.73;3.23;;;26.40;54.40;;;;;;5057246;28;20449;-56
2023/05/09 11:42:59;;;;;;;5.90;3.20;;;26.30;55.40;;;;;;5058814;28;20477;-55
2023/05/09 11:45:28;;;;;;;4.20;2.77;;;26.30;54.60;;;;;;5058425;28;21037;-55
2023/05/09 11:47:55;;;;;;;4.20;2.73;;;26.40;55.50;;;;;;5056511;28;20450;-55
2023/05/09 11:50:22;;;;;;;3.90;3.00;;;26.50;55.80;;;;;;5056430;28;20479;-56
2023/05/09 11:52:50;;;;;;;2.43;2.23;;;26.50;55.20;;;;;;5056312;28;20499;-56
2023/05/09 11:55:20;;;;;;;3.30;1.90;;;26.70;54.50;;;;;;5056258;28;20472;-56
2023/05/09 11:57:49;;;;;;;2.57;1.90;;;26.80;53.10;;;;;;5056354;28;20854;-56
2023/05/09 12:00:16;;;;;;;2.30;2.10;;;27.00;51.20;;;;;;5056036;28;20449;-55
2023/05/09 12:02:44;;;;;;;2.07;1.53;;;27.10;50.20;;;;;;5056075;28;20494;-56
2023/05/09 12:05:13;;;;;;;4.00;2.70;;;27.10;48.30;;;;;;5055998;28;20890;-56
2023/05/09 12:07:41;;;;;;;7.63;3.10;;;26.90;51.00;;;;;;5055859;28;20449;-56
2023/05/09 12:10:09;;;;;;;7.53;3.20;;;26.70;53.40;;;;;;5056004;28;20434;-56
2023/05/09 12:12:42;;;;;;;7.27;3.03;;;26.50;54.30;;;;;;5055882;28;20441;-55
2023/05/09 12:15:10;;;;;;;5.93;4.83;;;26.40;55.30;;;;;;5055569;28;20971;-56
2023/05/09 12:17:37;;;;;;;7.90;6.77;;;26.00;56.60;;;;;;5055551;28;20453;-56
2023/05/09 12:20:04;;;;;;;6.77;6.17;;;25.50;58.90;;;;;;5055783;28;20446;-56
2023/05/09 12:22:32;;;;;;;6.73;6.23;;;25.10;60.20;;;;;;5055452;28;20523;-55
2023/05/09 12:25:01;;;;;;;6.57;5.97;;;24.70;62.10;;;;;;5055681;28;20888;-55
2023/05/09 12:27:28;;;;;;;7.63;6.83;;;24.40;63.70;;;;;;5054317;28;20499;-55
2023/05/09 12:29:56;;;;;;;7.50;6.80;;;24.20;65.20;;;;;;5055633;28;20449;-56
2023/05/09 12:32:23;;;;;;;7.43;6.83;;;23.90;66.40;;;;;;5055522;28;20449;-55
2023/05/09 12:34:50;;;;;;;8.13;7.43;;;23.60;67.50;;;;;;5056139;28;20473;-55
2023/05/09 12:37:18;;;;;;;7.37;6.83;;;23.50;69.30;;;;;;5056661;28;20789;-56